Time;durP1;ratioP1;P1;durP2;ratioP2;P2;SDS_P1;SDS_P2;PMS_P1;PMS_P2;Temp;Humidity;BMP_temperature;BMP_pressure;BME280_temperature;BME280_humidity;BME280_pressure;Samples;Min_cycle;Max_cycle;Signal;HPM_P1;HPM_P2
2023/08/30 00:01:46;;;;;;;0.10;0.10;;;;;;;;;;5017461;28;20091;-85
2023/08/30 00:04:11;;;;;;;0.10;0.10;;;;;;;;;;5013597;28;20037;-85
2023/08/30 00:06:37;;;;;;;0.10;0.10;;;;;;;;;;5012273;28;20034;-85
2023/08/30 00:09:02;;;;;;;0.10;0.10;;;;;;;;;;5013737;28;20473;-85
2023/08/30 00:11:30;;;;;;;0.10;0.10;;;;;;;;;;5020128;28;20026;-85
2023/08/30 00:14:01;;;;;;;0.10;0.10;;;;;;;;;;5022089;28;20046;-85
2023/08/30 00:16:27;;;;;;;0.10;0.10;;;;;;;;;;5022611;28;20317;-84
2023/08/30 00:18:52;;;;;;;0.10;0.10;;;;;;;;;;5022185;28;20053;-85
2023/08/30 00:21:17;;;;;;;0.10;0.10;;;;;;;;;;5023598;28;20570;-85
2023/08/30 00:23:42;;;;;;;0.10;0.10;;;;;;;;;;5021750;28;20041;-85
2023/08/30 00:26:07;;;;;;;0.10;0.10;;;;;;;;;;5021188;28;20057;-83
2023/08/30 00:28:32;;;;;;;0.10;0.10;;;;;;;;;;5023654;28;20034;-85
2023/08/30 00:30:57;;;;;;;0.10;0.10;;;;;;;;;;5012624;28;20070;-85
2023/08/30 00:33:23;;;;;;;0.10;0.10;;;;;;;;;;5013123;28;20072;-84
2023/08/30 00:35:54;;;;;;;0.13;0.13;;;;;;;;;;5011485;28;20038;-84
2023/08/30 00:38:20;;;;;;;0.10;0.10;;;;;;;;;;5013277;28;20049;-85
2023/08/30 00:40:45;;;;;;;0.10;0.10;;;;;;;;;;5012201;28;20037;-84
2023/08/30 00:43:10;;;;;;;0.20;0.20;;;;;;;;;;5009841;28;20522;-85
2023/08/30 00:45:38;;;;;;;0.10;0.10;;;;;;;;;;5015344;28;20034;-82
2023/08/30 00:48:04;;;;;;;0.10;0.10;;;;;;;;;;5017891;28;20041;-85
2023/08/30 00:50:29;;;;;;;0.10;0.10;;;;;;;;;;5011745;28;20033;-85
2023/08/30 00:52:54;;;;;;;0.10;0.10;;;;;;;14.90;nan;99779.13;5012429;28;20080;-85
2023/08/30 00:55:20;;;;;;;0.10;0.10;;;;;;;;;;5012850;28;20034;-85
2023/08/30 00:57:45;;;;;;;0.20;0.20;;;;;;;14.84;nan;99637.84;5014911;28;20030;-85
2023/08/30 01:00:11;;;;;;;0.20;0.20;;;;;;;14.82;nan;99629.25;5011360;28;20269;-84
2023/08/30 01:02:36;;;;;;;0.10;0.10;;;;;;;;;;5007007;28;20030;-84
2023/08/30 01:05:03;;;;;;;0.10;0.10;;;;;;;14.81;nan;99659.56;5011601;28;20428;-85
2023/08/30 01:07:28;;;;;;;0.10;0.10;;;;;;;;;;5013315;28;20092;-84
2023/08/30 01:09:53;;;;;;;0.10;0.10;;;;;;;;;;5006266;28;20046;-84
2023/08/30 01:12:24;;;;;;;0.10;0.10;;;;;;;;;;5012989;28;20061;-85
2023/08/30 01:15:00;;;;;;;0.20;0.20;;;;;;;14.98;nan;99621.91;5009547;28;20038;-84
2023/08/30 01:17:27;;;;;;;0.10;0.10;;;;;;;14.98;nan;99702.59;5004779;28;20373;-84
2023/08/30 01:20:11;;;;;;;0.10;0.10;;;;;;;;;;4999529;28;20121;-84
2023/08/30 01:22:45;;;;;;;0.10;0.10;;;;;;;;;;5002623;28;20139;-85
2023/08/30 01:25:10;;;;;;;0.10;0.10;;;;;;;;;;5017371;28;20045;-84
2023/08/30 01:27:37;;;;;;;0.20;0.20;;;;;;;;;;5008575;28;20034;-84
2023/08/30 01:30:04;;;;;;;0.10;0.10;;;;;;;;;;5013418;28;20026;-85
2023/08/30 01:32:30;;;;;;;0.10;0.10;;;;;;;;;;5000369;28;20074;-85
2023/08/30 01:34:55;;;;;;;0.10;0.10;;;;;;;;;;5011824;28;20121;-85
2023/08/30 01:37:21;;;;;;;0.10;0.10;;;;;;;;;;5015181;28;20542;-85
2023/08/30 01:39:47;;;;;;;0.10;0.10;;;;;;;;;;5034758;28;20061;-85
2023/08/30 01:42:14;;;;;;;0.20;0.20;;;;;;;;;;5026770;28;20052;-85
2023/08/30 01:44:41;;;;;;;0.10;0.10;;;;;;;;;;5020762;28;20048;-85
2023/08/30 01:47:06;;;;;;;0.10;0.10;;;;;;;;;;5025853;28;20042;-85
2023/08/30 01:49:32;;;;;;;0.10;0.10;;;;;;;;;;5018539;28;20030;-85
2023/08/30 01:51:57;;;;;;;0.10;0.10;;;;;;;;;;5024462;28;20293;-85
2023/08/30 01:54:23;;;;;;;0.10;0.10;;;;;;;;;;5022209;28;20076;-85
2023/08/30 01:56:49;;;;;;;0.10;0.10;;;;;;;15.21;nan;99696.91;5024788;28;20038;-85
2023/08/30 01:59:14;;;;;;;0.10;0.10;;;;;;;;;;5020318;28;20034;-85
2023/08/30 02:01:39;;;;;;;0.10;0.10;;;;;;;;;;5025401;28;20053;-85
2023/08/30 02:04:04;;;;;;;0.10;0.10;;;;;;;;;;5017680;28;20048;-84
2023/08/30 02:06:39;;;;;;;0.10;0.10;;;;;;;;;;5021238;28;20288;-84
2023/08/30 02:09:09;;;;;;;0.10;0.10;;;;;;;;;;5017910;28;20304;-85
2023/08/30 02:11:35;;;;;;;0.10;0.10;;;;;;;;;;5017304;28;20424;-85
2023/08/30 02:14:04;;;;;;;0.10;0.10;;;;;;;;;;5018098;28;20125;-85
2023/08/30 02:16:30;;;;;;;0.10;0.10;;;;;;;;;;5020631;28;20045;-85
2023/08/30 02:18:56;;;;;;;0.10;0.10;;;;;;;;;;5023135;28;20038;-85
2023/08/30 02:21:21;;;;;;;0.10;0.10;;;;;;;;;;5022980;28;20073;-84
2023/08/30 02:23:50;;;;;;;0.10;0.10;;;;;;;;;;5020436;28;20034;-85
2023/08/30 02:26:17;;;;;;;0.10;0.10;;;;;;;;;;5020620;28;20046;-85
2023/08/30 02:28:42;;;;;;;0.10;0.10;;;;;;;;;;5020877;28;20294;-85
2023/08/30 02:31:07;;;;;;;0.10;0.10;;;;;;;;;;5019703;28;20358;-85
2023/08/30 02:33:33;;;;;;;0.10;0.10;;;;;;;;;;5013717;28;20121;-85
2023/08/30 02:35:58;;;;;;;0.10;0.10;;;;;;;;;;5020579;28;20045;-85
2023/08/30 02:38:23;;;;;;;0.10;0.10;;;;;;;;;;5020376;28;20276;-85
2023/08/30 02:40:48;;;;;;;0.10;0.10;;;;;;;;;;5021673;28;20090;-84
2023/08/30 02:43:14;;;;;;;0.10;0.10;;;;;;;;;;5019965;28;20284;-85
2023/08/30 02:45:39;;;;;;;0.10;0.10;;;;;;;;;;5020352;28;20169;-85
2023/08/30 02:48:05;;;;;;;0.10;0.10;;;;;;;;;;5020630;28;20029;-85
2023/08/30 02:50:30;;;;;;;0.10;0.10;;;;;;;;;;5018506;28;20046;-84
2023/08/30 02:52:55;;;;;;;0.10;0.10;;;;;;;;;;5016645;28;20116;-86
2023/08/30 02:55:20;;;;;;;0.10;0.10;;;;;;;;;;5008390;28;20265;-86
2023/08/30 02:57:46;;;;;;;0.10;0.10;;;;;;;;;;5016709;28;20269;-88
2023/08/30 03:00:12;;;;;;;0.10;0.10;;;;;;;15.34;nan;99616.19;5014007;28;20026;-87
2023/08/30 03:02:37;;;;;;;0.10;0.10;;;;;;;;;;5004179;28;20030;-88
2023/08/30 03:05:04;;;;;;;0.10;0.10;;;;;;;;;;4998241;28;20049;-87
2023/08/30 03:07:29;;;;;;;0.20;0.20;;;;;;;;;;4997722;28;20289;-87
2023/08/30 03:09:54;;;;;;;0.10;0.10;;;;;;;;;;5013835;28;20034;-88
2023/08/30 03:12:20;;;;;;;0.10;0.10;;;;;;;;;;4995925;28;20038;-85
2023/08/30 03:14:45;;;;;;;0.10;0.10;;;;;;;;;;5009027;28;20092;-87
2023/08/30 03:17:10;;;;;;;0.10;0.10;;;;;;;15.34;nan;99610.06;5014806;28;20492;-87
2023/08/30 03:19:36;;;;;;;0.10;0.10;;;;;;;15.33;nan;99608.44;4999364;28;20056;-86
2023/08/30 03:22:01;;;;;;;0.10;0.10;;;;;;;;;;5003857;28;20049;-87
2023/08/30 03:24:26;;;;;;;0.10;0.10;;;;;;;;;;4995954;28;20507;-86
2023/08/30 03:26:51;;;;;;;0.10;0.10;;;;;;;;;;4999950;28;20345;-87
2023/08/30 03:29:16;;;;;;;0.10;0.10;;;;;;;;;;4994368;28;20031;-88
2023/08/30 03:31:43;;;;;;;0.10;0.10;;;;;;;;;;5003971;28;20048;-86
2023/08/30 03:34:08;;;;;;;0.10;0.10;;;;;;;;;;5013616;28;20324;-86
2023/08/30 03:36:33;;;;;;;0.13;0.13;;;;;;;15.32;nan;99622.75;5013718;28;20038;-86
2023/08/30 03:38:59;;;;;;;0.10;0.10;;;;;;;;;;5014111;28;20583;-87
2023/08/30 03:41:24;;;;;;;0.10;0.10;;;;;;;;;;5010594;28;20153;-86
2023/08/30 03:43:49;;;;;;;0.10;0.10;;;;;;;15.32;nan;99633.41;5002166;28;20038;-89
2023/08/30 03:46:14;;;;;;;0.10;0.10;;;;;;;;;;5019440;28;20345;-86
2023/08/30 03:48:40;;;;;;;0.10;0.10;;;;;;;;;;5016713;28;20442;-87
2023/08/30 03:51:05;;;;;;;0.10;0.10;;;;;;;;;;5017956;28;20038;-87
2023/08/30 03:53:30;;;;;;;0.10;0.10;;;;;;;;;;5002477;28;20281;-86
2023/08/30 03:55:55;;;;;;;0.10;0.10;;;;;;;;;;5017362;28;20297;-85
2023/08/30 03:58:21;;;;;;;0.10;0.10;;;;;;;;;;5016274;28;20040;-86
2023/08/30 04:00:46;;;;;;;0.10;0.10;;;;;;;15.26;nan;99619.06;5018486;28;20364;-85
2023/08/30 04:03:13;;;;;;;0.10;0.10;;;;;;;;;;4999926;28;20062;-88
2023/08/30 04:05:38;;;;;;;0.10;0.10;;;;;;;15.24;nan;99615.78;4998853;28;20388;-86
2023/08/30 04:08:04;;;;;;;0.10;0.10;;;;;;;;;;5017073;28;20064;-86
2023/08/30 04:10:33;;;;;;;0.10;0.10;;;;;;;;;;5012357;28;20329;-86
2023/08/30 04:12:59;;;;;;;0.10;0.10;;;;;;;;;;5002256;28;20081;-85
2023/08/30 04:15:24;;;;;;;0.10;0.10;;;;;;;15.25;nan;99614.75;5008345;28;20034;-85
2023/08/30 04:17:49;;;;;;;0.10;0.10;;;;;;;;;;5015348;28;20499;-85
2023/08/30 04:20:15;;;;;;;0.10;0.10;;;;;;;15.21;nan;99617.03;5005128;28;20061;-87
2023/08/30 04:22:40;;;;;;;0.10;0.10;;;;;;;;;;5017745;28;20041;-86
2023/08/30 04:25:09;;;;;;;0.10;0.10;;;;;;;15.20;nan;99593.25;5003808;28;20030;-85
2023/08/30 04:27:34;;;;;;;0.10;0.10;;;;;;;;;;5009262;28;20296;-85
2023/08/30 04:30:02;;;;;;;0.10;0.10;;;;;;;;;;5015799;28;20048;-87
2023/08/30 04:32:27;;;;;;;0.10;0.10;;;;;;;;;;5012495;28;20414;-85
2023/08/30 04:34:53;;;;;;;0.10;0.10;;;;;;;;;;5016083;28;20034;-84
2023/08/30 04:37:18;;;;;;;0.10;0.10;;;;;;;15.15;nan;99691.56;4999885;28;20042;-85
2023/08/30 04:39:46;;;;;;;0.10;0.10;;;;;;;;;;4996404;28;20043;-85
2023/08/30 04:42:11;;;;;;;0.13;0.13;;;;;;;;;;4995877;28;20088;-85
2023/08/30 04:44:37;;;;;;;0.10;0.10;;;;;;;;;;5002827;28;20101;-85
2023/08/30 04:47:02;;;;;;;0.10;0.10;;;;;;;;;;5018240;28;20034;-86
2023/08/30 04:49:29;;;;;;;0.10;0.10;;;;;;;;;;5007120;28;20435;-87
2023/08/30 04:51:54;;;;;;;0.10;0.10;;;;;;;15.24;nan;99589.16;5014854;28;20401;-86
2023/08/30 04:54:19;;;;;;;0.10;0.10;;;;;;;;;;5009025;28;20094;-84
2023/08/30 04:56:44;;;;;;;0.20;0.20;;;;;;;;;;5010027;28;20041;-84
2023/08/30 04:59:10;;;;;;;0.13;0.13;;;;;;;;;;5013762;28;20111;-85
2023/08/30 05:01:35;;;;;;;0.10;0.10;;;;;;;;;;5012941;28;20289;-85
2023/08/30 05:04:00;;;;;;;0.10;0.10;;;;;;;;;;5013027;28;20106;-87
2023/08/30 05:06:26;;;;;;;0.10;0.10;;;;;;;;;;5005538;28;20316;-85
2023/08/30 05:08:51;;;;;;;0.10;0.10;;;;;;;;;;5009429;28;20041;-85
2023/08/30 05:11:16;;;;;;;0.10;0.10;;;;;;;;;;5012365;28;20068;-86
2023/08/30 05:13:41;;;;;;;0.10;0.10;;;;;;;;;;5013180;28;20423;-86
2023/08/30 05:16:06;;;;;;;0.10;0.10;;;;;;;;;;5000262;28;20100;-85
2023/08/30 05:18:32;;;;;;;0.10;0.10;;;;;;;;;;5003720;28;20030;-85
2023/08/30 05:20:57;;;;;;;0.10;0.10;;;;;;;;;;5022341;28;20096;-85
2023/08/30 05:23:22;;;;;;;0.10;0.10;;;;;;;;;;5011775;28;20531;-84
2023/08/30 05:25:47;;;;;;;0.10;0.10;;;;;;;;;;5011188;28;20068;-86
2023/08/30 05:28:13;;;;;;;0.10;0.10;;;;;;;15.62;nan;99607.16;5011047;28;20109;-89
2023/08/30 05:30:42;;;;;;;0.10;0.10;;;;;;;;;;5002898;28;20304;-84
2023/08/30 05:33:08;;;;;;;0.10;0.10;;;;;;;15.58;nan;99676.03;5006653;28;20042;-85
2023/08/30 05:35:33;;;;;;;0.17;0.17;;;;;;;;;;5009105;28;20046;-87
2023/08/30 05:37:58;;;;;;;0.10;0.10;;;;;;;;;;5009236;28;20029;-86
2023/08/30 05:40:24;;;;;;;0.10;0.10;;;;;;;;;;5008228;28;20041;-86
2023/08/30 05:42:50;;;;;;;0.10;0.10;;;;;;;;;;5015741;28;20045;-87
2023/08/30 05:45:15;;;;;;;0.10;0.10;;;;;;;;;;5021206;28;20065;-86
2023/08/30 05:47:40;;;;;;;0.10;0.10;;;;;;;;;;5010885;28;20129;-87
2023/08/30 05:50:05;;;;;;;0.10;0.10;;;;;;;;;;5018553;28;20285;-85
2023/08/30 05:52:32;;;;;;;0.10;0.10;;;;;;;;;;5011945;28;20033;-87
2023/08/30 05:54:57;;;;;;;0.10;0.10;;;;;;;;;;5004047;28;20097;-85
2023/08/30 05:57:23;;;;;;;0.10;0.10;;;;;;;;;;5007030;28;20121;-85
2023/08/30 05:59:48;;;;;;;0.10;0.10;;;;;;;;;;5018587;28;20404;-88
2023/08/30 06:02:14;;;;;;;0.10;0.10;;;;;;;;;;5016738;28;20041;-85
2023/08/30 06:04:39;;;;;;;0.10;0.10;;;;;;;16.04;nan;99626.38;5014301;28;20038;-88
2023/08/30 06:07:05;;;;;;;0.10;0.10;;;;;;;16.08;nan;99596.41;5014250;28;20277;-85
2023/08/30 06:09:30;;;;;;;0.10;0.10;;;;;;;;;;5011551;28;20061;-86
2023/08/30 06:11:56;;;;;;;0.10;0.10;;;;;;;;;;5021464;28;20612;-86
2023/08/30 06:14:21;;;;;;;0.10;0.10;;;;;;;;;;5028370;28;20522;-85
2023/08/30 06:16:47;;;;;;;0.10;0.10;;;;;;;16.25;nan;99615.44;5001148;28;20893;-87
2023/08/30 06:19:12;;;;;;;0.10;0.10;;;;;;;;;;5018260;28;20066;-87
2023/08/30 06:21:37;;;;;;;0.10;0.10;;;;;;;;;;5013370;28;20073;-85
2023/08/30 06:24:03;;;;;;;0.00;0.00;;;;;;;16.33;nan;99609.06;5011634;28;20052;-85
2023/08/30 06:26:28;;;;;;;0.10;0.10;;;;;;;;;;5003583;28;20041;-85
2023/08/30 06:28:53;;;;;;;0.10;0.10;;;;;;;;;;5014409;28;20072;-84
2023/08/30 06:31:18;;;;;;;0.10;0.10;;;;;;;;;;5005516;28;20088;-85
2023/08/30 06:33:44;;;;;;;0.10;0.10;;;;;;;;;;5010069;28;20519;-84
2023/08/30 06:36:11;;;;;;;0.10;0.10;;;;;;;;;;5001110;28;20042;-84
2023/08/30 06:38:36;;;;;;;0.10;0.10;;;;;;;;;;5015884;28;20153;-87
2023/08/30 06:41:01;;;;;;;0.10;0.10;;;;;;;;;;5014504;28;20054;-85
2023/08/30 06:43:26;;;;;;;0.10;0.10;;;;;;;;;;5014414;28;20026;-85
2023/08/30 06:45:53;;;;;;;0.10;0.10;;;;;;;;;;5016991;28;20034;-85
2023/08/30 06:48:20;;;;;;;0.10;0.10;;;;;;;;;;5018590;28;20057;-85
2023/08/30 06:50:46;;;;;;;0.10;0.10;;;;;;;18.07;nan;99641.50;5019722;28;20034;-85
2023/08/30 06:53:11;;;;;;;0.10;0.10;;;;;;;;;;5020304;28;20034;-86
2023/08/30 06:55:37;;;;;;;0.10;0.10;;;;;;;17.86;nan;99648.09;5013965;28;20273;-86
2023/08/30 06:58:03;;;;;;;0.10;0.10;;;;;;;17.80;nan;99592.78;5011216;28;20273;-86
2023/08/30 07:00:28;;;;;;;0.10;0.10;;;;;;;17.73;nan;99713.19;5009850;28;20672;-85
2023/08/30 07:02:53;;;;;;;125.85;97.00;;;;;;;;;;5017122;28;20046;-84
2023/08/30 07:05:19;;;;;;;0.10;0.10;;;;;;;;;;5008798;28;20054;-86
2023/08/30 07:07:44;;;;;;;0.10;0.10;;;;;;;17.67;nan;99614.31;5010591;28;20042;-85
2023/08/30 07:10:09;;;;;;;0.10;0.10;;;;;;;;;;5008730;28;20801;-86
2023/08/30 07:12:35;;;;;;;0.20;0.20;;;;;;;;;;5016705;28;20104;-85
2023/08/30 07:15:00;;;;;;;0.10;0.10;;;;;;;17.93;nan;99682.81;5018600;28;20269;-84
2023/08/30 07:17:25;;;;;;;0.10;0.10;;;;;;;;;;5016322;28;20395;-86
2023/08/30 07:19:51;;;;;;;0.10;0.10;;;;;;;;;;5017250;28;20041;-84
2023/08/30 07:22:16;;;;;;;0.10;0.10;;;;;;;17.93;nan;99597.22;5019031;28;20073;-86
2023/08/30 07:24:42;;;;;;;0.10;0.10;;;;;;;;;;5020775;28;20037;-84
2023/08/30 07:27:08;;;;;;;0.10;0.10;;;;;;;;;;5018232;28;20041;-84
2023/08/30 07:29:33;;;;;;;0.10;0.10;;;;;;;;;;5019048;28;20040;-84
2023/08/30 07:31:58;;;;;;;0.10;0.10;;;;;;;18.59;nan;99617.00;5017177;28;20033;-85
2023/08/30 07:34:23;;;;;;;0.10;0.10;;;;;;;;;;5009210;28;20034;-84
2023/08/30 07:36:49;;;;;;;0.10;0.10;;;;;;;;;;5009657;28;20042;-86
2023/08/30 07:39:14;;;;;;;0.10;0.10;;;;;;;;;;5014266;28;20038;-85
2023/08/30 07:41:39;;;;;;;0.10;0.10;;;;;;;;;;5015904;28;20045;-85
2023/08/30 07:44:04;;;;;;;0.10;0.10;;;;;;;;;;5016698;28;20062;-86
2023/08/30 07:46:30;;;;;;;0.10;0.10;;;;;;;19.88;nan;99632.56;5017128;28;20049;-84
2023/08/30 07:48:55;;;;;;;0.10;0.10;;;;;;;;;;5018493;28;20523;-85
2023/08/30 07:51:21;;;;;;;0.10;0.10;;;;;;;;;;5016114;28;20038;-84
2023/08/30 07:53:46;;;;;;;0.10;0.10;;;;;;;;;;5005299;28;20041;-85
2023/08/30 07:56:11;;;;;;;0.10;0.10;;;;;;;20.41;nan;99628.81;5016605;28;20037;-85
2023/08/30 07:58:36;;;;;;;0.10;0.10;;;;;;;20.70;nan;99613.56;5012279;28;20046;-85
2023/08/30 08:01:02;;;;;;;0.10;0.10;;;;;;;;;;5015350;28;20053;-85
2023/08/30 08:03:27;;;;;;;0.10;0.10;;;;;;;21.25;nan;99730.38;5017161;28;20034;-85
2023/08/30 08:05:52;;;;;;;0.10;0.10;;;;;;;;;;5009283;28;20026;-85
2023/08/30 08:08:18;;;;;;;0.10;0.10;;;;;;;;;;5013683;28;20034;-84
2023/08/30 08:10:43;;;;;;;0.10;0.10;;;;;;;;;;5015329;28;20562;-85
2023/08/30 08:13:09;;;;;;;0.10;0.10;;;;;;;21.51;nan;99612.50;5013456;28;20026;-86
2023/08/30 08:15:34;;;;;;;0.10;0.10;;;;;;;21.57;nan;99737.94;5006096;28;20026;-85
2023/08/30 08:18:00;;;;;;;0.08;0.08;;;;;;;21.69;nan;99649.09;5020417;28;20049;-85
2023/08/30 08:20:26;;;;;;;0.10;0.10;;;;;;;;;;5011166;28;20140;-86
2023/08/30 08:22:51;;;;;;;0.00;0.00;;;;;;;;;;5011773;28;20084;-86
2023/08/30 08:25:16;;;;;;;0.00;0.00;;;;;;;;;;5013556;28;20045;-86
2023/08/30 08:27:41;;;;;;;0.10;0.10;;;;;;;;;;5012154;28;20642;-85
2023/08/30 08:30:07;;;;;;;0.00;0.00;;;;;;;;;;5017375;28;20316;-86
2023/08/30 08:32:33;;;;;;;0.10;0.10;;;;;;;;;;5019284;28;20048;-85
2023/08/30 08:34:58;;;;;;;0.10;0.10;;;;;;;21.33;nan;99718.41;5014170;28;20124;-87
2023/08/30 08:37:24;;;;;;;183.52;148.02;;;;;;;21.16;nan;99668.09;5003276;28;20037;-87
2023/08/30 08:39:50;;;;;;;174.73;155.63;;;;;;;;;;5011648;28;20034;-87
2023/08/30 08:42:16;;;;;;;176.77;158.80;;;;;;;;;;5008969;28;20042;-87
2023/08/30 08:44:43;;;;;;;333.30;297.92;;;;;;;22.30;nan;99652.66;5003673;28;20038;-88
2023/08/30 08:47:08;;;;;;;23.45;19.80;;;;;;;;;;5004117;28;20037;-87
2023/08/30 08:49:33;;;;;;;1.90;1.80;;;;;;;;;;4998371;28;20034;-87
2023/08/30 08:51:59;;;;;;;1.70;1.60;;;;;;;;;;5005457;28;20041;-87
2023/08/30 08:54:25;;;;;;;0.10;0.10;;;;;;;;;;5007642;28;20285;-87
2023/08/30 08:56:50;;;;;;;0.00;0.00;;;;;;;23.77;nan;99640.06;5005798;28;20381;-86
2023/08/30 08:59:16;;;;;;;0.10;0.10;;;;;;;;;;5004303;28;20225;-87
2023/08/30 09:01:41;;;;;;;0.65;0.45;;;;;;;23.81;nan;99738.34;5006066;28;20052;-87
2023/08/30 09:04:07;;;;;;;56.13;50.53;;;;;;;;;;5000719;28;20486;-87
2023/08/30 09:06:33;;;;;;;0.38;0.22;;;;;;;;;;5011479;28;20069;-87
2023/08/30 09:08:58;;;;;;;63.97;58.23;;;;;;;23.63;nan;99672.06;4999954;28;20083;-89
2023/08/30 09:11:23;;;;;;;43.33;39.20;;;;;;;;;;5002965;28;20062;-87
2023/08/30 09:13:48;;;;;;;27.63;25.20;;;;;;;;;;5001873;28;20126;-87
2023/08/30 09:16:15;;;;;;;0.00;0.00;;;;;;;23.89;nan;99660.38;5002691;28;20030;-87
2023/08/30 09:18:43;;;;;;;26.52;24.50;;;;;;;24.11;nan;99619.72;5009506;28;20211;-87
2023/08/30 09:21:09;;;;;;;0.13;0.13;;;;;;;24.18;nan;99665.41;5007793;28;20365;-88
2023/08/30 09:23:35;;;;;;;56.28;51.25;;;;;;;24.53;nan;99674.78;4988595;28;20038;-86
2023/08/30 09:26:00;;;;;;;0.10;0.10;;;;;;;;;;4998107;28;20404;-86
2023/08/30 09:28:26;;;;;;;0.00;0.00;;;;;;;;;;5023120;28;20045;-88
2023/08/30 09:30:52;;;;;;;0.10;0.10;;;;;;;25.05;nan;99648.63;5005170;28;20073;-88
2023/08/30 09:33:32;;;;;;;0.15;0.15;;;;;;;25.52;nan;99674.66;5008499;28;20037;-87
2023/08/30 09:35:58;;;;;;;0.00;0.00;;;;;;;25.99;nan;99646.47;5006717;28;20125;-87
2023/08/30 09:38:23;;;;;;;0.00;0.00;;;;;;;;;;5006370;28;20116;-87
2023/08/30 09:40:48;;;;;;;0.00;0.00;;;;;;;;;;5013071;28;20450;-87
2023/08/30 09:43:17;;;;;;;0.00;0.00;;;;;;;;;;5005801;28;20054;-87
2023/08/30 09:45:43;;;;;;;0.00;0.00;;;;;;;;;;4995149;28;20046;-87
2023/08/30 09:48:09;;;;;;;0.00;0.00;;;;;;;26.14;nan;99645.59;5004897;28;20038;-88
2023/08/30 09:50:35;;;;;;;0.00;0.00;;;;;;;25.95;nan;99662.44;5010393;28;20517;-88
2023/08/30 09:53:09;;;;;;;0.00;0.00;;;;;;;25.90;nan;99670.59;5006450;28;20034;-87
2023/08/30 09:55:35;;;;;;;0.00;0.00;;;;;;;25.83;nan;99660.00;5001263;28;20043;-87
2023/08/30 09:58:02;;;;;;;0.00;0.00;;;;;;;;;;5007972;28;20033;-87
2023/08/30 10:00:28;;;;;;;0.10;0.10;;;;;;;25.82;nan;99657.59;5007079;28;20038;-86
2023/08/30 10:02:54;;;;;;;0.00;0.00;;;;;;;;;;4999593;28;20052;-87
2023/08/30 10:05:20;;;;;;;0.10;0.10;;;;;;;26.70;nan;99656.22;5006154;28;20646;-88
2023/08/30 10:07:45;;;;;;;0.35;0.20;;;;;;;26.74;nan;99624.72;5002151;28;20045;-88
2023/08/30 10:10:12;;;;;;;1.08;0.88;;;;;;;26.62;nan;99659.50;5001463;28;20042;-88
2023/08/30 10:12:38;;;;;;;0.00;0.00;;;;;;;;;;5001476;28;20089;-88
2023/08/30 10:15:05;;;;;;;0.13;0.13;;;;;;;27.48;nan;99625.56;5005030;28;20168;-87
2023/08/30 10:17:33;;;;;;;2.88;2.70;;;;;;;27.84;nan;99637.97;5005748;28;20008;-88
2023/08/30 10:20:01;;;;;;;2.03;1.23;;;;;;;27.72;nan;99631.00;5000261;28;20096;-87
2023/08/30 10:22:27;;;;;;;30.45;28.20;;;;;;;;;;5013632;28;20040;-87
2023/08/30 10:24:59;;;;;;;44.65;41.17;;;;;;;27.26;nan;99664.00;5006014;28;20113;-87
2023/08/30 10:27:26;;;;;;;15.45;14.35;;;;;;;27.15;nan;99640.72;5000266;28;20038;-87
2023/08/30 10:29:52;;;;;;;68.35;63.20;;;;;;;27.21;nan;99598.09;5010223;28;20042;-88
2023/08/30 10:32:24;;;;;;;264.87;241.93;;;;;;;27.28;nan;99585.81;5004817;28;20041;-87
2023/08/30 10:34:50;;;;;;;215.45;200.25;;;;;;;27.92;nan;99605.56;5003318;28;19913;-87
2023/08/30 10:37:16;;;;;;;16.60;15.43;;;;;;;28.36;nan;99618.06;4999242;28;20511;-88
2023/08/30 10:39:42;;;;;;;89.72;83.10;;;;;;;28.48;nan;99617.63;4993936;28;20458;-88
2023/08/30 10:42:13;;;;;;;80.32;75.07;;;;;;;28.22;nan;99646.22;5008137;28;20038;-87
2023/08/30 10:44:48;;;;;;;;;;;;;;;27.86;nan;99631.16;5003001;28;20042;-88
2023/08/30 10:47:28;;;;;;;12.23;11.32;;;;;;;27.70;nan;99597.09;5004498;28;19921;-87
2023/08/30 10:49:55;;;;;;;59.35;54.80;;;;;;;27.97;nan;99601.97;5009525;28;20261;-87
2023/08/30 10:52:21;;;;;;;11.77;10.80;;;;;;;29.12;nan;99625.44;4999125;28;20026;-87
2023/08/30 10:54:46;;;;;;;15.40;14.27;;;;;;;29.66;nan;99613.06;4996769;28;20041;-88
2023/08/30 10:57:14;;;;;;;0.10;0.10;;;;;;;30.52;nan;99607.00;4997077;28;20042;-87
2023/08/30 10:59:39;;;;;;;;;;;;;;;;;;4999358;28;20372;-88
2023/08/30 11:02:04;;;;;;;0.00;0.00;;;;;;;;;;5006477;28;20550;-88
2023/08/30 11:04:29;;;;;;;568.03;520.70;;;;;;;;;;5005644;28;20393;-87
2023/08/30 11:06:55;;;;;;;560.43;515.33;;;;;;;;;;5005397;28;20401;-88
2023/08/30 11:09:21;;;;;;;593.53;544.87;;;;;;;;;;5001936;28;20426;-87
2023/08/30 11:11:47;;;;;;;547.42;508.30;;;;;;;;;;5004239;28;20515;-87
2023/08/30 11:14:13;;;;;;;666.45;617.25;;;;;;;34.68;nan;99615.94;5003413;28;20500;-89
2023/08/30 11:16:39;;;;;;;516.17;471.27;;;;;;;34.99;nan;99602.91;5003865;28;20447;-87
2023/08/30 11:19:07;;;;;;;589.87;541.37;;;;;;;35.22;nan;99612.38;5023329;28;20029;-88
2023/08/30 11:21:34;;;;;;;18.13;16.90;;;;;;;34.73;nan;99606.69;4999611;28;20112;-88
2023/08/30 11:23:59;;;;;;;;;;;;;;;34.88;nan;99614.31;4989036;28;20420;-87
2023/08/30 11:26:25;;;;;;;;;;;;;;;34.78;nan;99603.75;4983759;28;19914;-88
2023/08/30 11:28:52;;;;;;;;;;;;;;;34.85;nan;99597.72;4979510;28;19984;-88
2023/08/30 11:31:27;;;;;;;;;;;;;;;35.02;nan;99602.25;4975453;28;20608;-88
2023/08/30 11:33:56;;;;;;;;;;;;;;;34.98;nan;99591.09;4990254;28;19932;-88
2023/08/30 11:36:22;;;;;;;;;;;;;;;34.85;nan;99587.53;4992265;28;19925;-88
2023/08/30 11:38:50;;;;;;;;;;;;;;;34.27;nan;99581.00;4995307;28;20060;-87
2023/08/30 11:41:16;;;;;;;;;;;;;;;34.25;nan;99577.78;4982015;28;19917;-88
2023/08/30 11:43:41;;;;;;;;;;;;;;;32.45;nan;99571.34;4985396;28;19918;-87
2023/08/30 11:46:07;;;;;;;;;;;;;;;32.08;nan;99579.81;4988004;28;20390;-88
2023/08/30 11:48:33;;;;;;;;;;;;;;;31.68;nan;99571.66;4991521;28;19981;-86
2023/08/30 11:50:59;;;;;;;;;;;;;;;32.23;nan;99580.50;4993217;28;20023;-86
2023/08/30 11:53:24;;;;;;;;;;;;;;;31.77;nan;99579.06;4994713;28;19929;-87
2023/08/30 11:55:50;;;;;;;;;;;;;;;30.64;nan;99563.59;4999642;28;20295;-86
2023/08/30 11:58:15;;;;;;;;;;;;;;;30.45;nan;99574.69;4995386;28;19918;-86
2023/08/30 12:00:40;;;;;;;;;;;;;;;30.46;nan;99576.31;4992947;28;19921;-88
2023/08/30 12:03:05;;;;;;;;;;;;;;;30.08;nan;99570.25;4994124;28;19914;-88
2023/08/30 12:05:35;;;;;;;;;;;;;;;29.73;nan;99567.19;4993830;28;19914;-87
2023/08/30 12:08:00;;;;;;;;;;;;;;;29.62;nan;99563.81;4987797;28;19914;-88
2023/08/30 12:10:28;;;;;;;;;;;;;;;29.20;nan;99559.44;4993850;28;20303;-87
2023/08/30 12:12:53;;;;;;;;;;;;;;;28.88;nan;99549.31;4993256;28;19914;-88
2023/08/30 12:15:19;;;;;;;;;;;;;;;28.29;nan;99544.22;4993110;28;20068;-88
2023/08/30 12:17:44;;;;;;;;;;;;;;;27.77;nan;99528.81;4978447;28;19918;-88
2023/08/30 12:20:17;;;;;;;;;;;;;;;27.42;nan;99537.09;4992633;28;19921;-88
2023/08/30 12:22:42;;;;;;;;;;;;;;;27.13;nan;99528.13;4986215;28;19914;-87
2023/08/30 12:25:21;;;;;;;;;;;;;;;27.01;nan;99525.81;4986025;28;19922;-86
2023/08/30 12:27:46;;;;;;;;;;;;;;;27.11;nan;99534.63;4992428;28;20049;-88
2023/08/30 12:30:12;;;;;;;;;;;;;;;26.84;nan;99521.59;4991734;28;20427;-88
2023/08/30 12:32:37;;;;;;;;;;;;;;;26.36;nan;99520.56;4992775;28;19914;-88
2023/08/30 12:35:03;;;;;;;;;;;;;;;26.09;nan;99500.13;4986233;28;20004;-88
2023/08/30 12:37:28;;;;;;;;;;;;;;;26.20;nan;99517.94;4992371;28;19922;-88
2023/08/30 12:39:53;;;;;;;;;;;;;;;26.15;nan;99495.47;4984351;28;19933;-87
2023/08/30 12:42:19;;;;;;;;;;;;;;;26.08;nan;99517.47;4993470;28;19914;-87
2023/08/30 12:44:44;;;;;;;;;;;;;;;26.16;nan;99495.19;4994558;28;19941;-88
2023/08/30 12:47:13;;;;;;;;;;;;;;;26.18;nan;99509.28;4984389;28;19924;-88
2023/08/30 12:49:41;;;;;;;;;;;;;;;26.10;nan;99500.94;4993494;28;19960;-86
2023/08/30 12:52:07;;;;;;;;;;;;;;;25.88;nan;99499.41;4993451;28;19917;-88
2023/08/30 12:54:32;;;;;;;;;;;;;;;25.63;nan;99509.25;4989270;28;19920;-88
2023/08/30 12:56:57;;;;;;;;;;;;;;;25.10;nan;99499.84;4987890;28;19918;-88
2023/08/30 12:59:22;;;;;;;;;;;;;;;24.71;nan;99484.22;4994745;28;19925;-87
2023/08/30 13:01:47;;;;;;;;;;;;;;;24.45;nan;99499.56;4987564;28;19921;-86
2023/08/30 13:04:13;;;;;;;11.03;10.20;;;;;;;24.24;nan;99472.56;4989900;28;19917;-87
2023/08/30 13:06:38;;;;;;;24.73;22.85;;;;;;;;;;4999039;28;20511;-87
2023/08/30 13:09:03;;;;;;;0.90;0.57;;;;;;;;;;4990287;28;20545;-87
2023/08/30 13:11:30;;;;;;;1.67;0.68;;;;;;;24.21;nan;99451.44;5000389;28;20564;-87
2023/08/30 13:13:57;;;;;;;0.00;0.00;;;;;;;24.40;nan;99476.06;4991558;28;20411;-88
2023/08/30 13:16:23;;;;;;;0.00;0.00;;;;;;;24.56;nan;99447.19;4984050;28;20116;-88
2023/08/30 13:18:48;;;;;;;0.00;0.00;;;;;;;;;;4992564;28;20050;-87
2023/08/30 13:21:13;;;;;;;31.97;29.80;;;;;;;;;;4990593;28;20839;-87
2023/08/30 13:23:39;;;;;;;13.50;12.40;;;;;;;25.29;nan;99489.31;4981940;28;20457;-87
2023/08/30 13:26:04;;;;;;;72.80;66.00;;;;;;;;;;4991209;28;20092;-87
2023/08/30 13:28:29;;;;;;;137.33;122.07;;;;;;;25.49;nan;99491.97;4991239;28;20037;-88